sensor_id;sensor_type;location;lat;lon;timestamp;temperature;humidity
6666;DHT22;3369;49.906;8.598;2023-03-01T00:00:47;-1.50;99.90
6666;DHT22;3369;49.906;8.598;2023-03-01T00:03:13;-1.50;99.90
6666;DHT22;3369;49.906;8.598;2023-03-01T00:05:55;-1.50;99.90
6666;DHT22;3369;49.906;8.598;2023-03-01T00:08:21;-1.50;99.90
6666;DHT22;3369;49.906;8.598;2023-03-01T00:10:47;-1.50;99.90
6666;DHT22;3369;49.906;8.598;2023-03-01T00:13:13;-1.40;99.90
6666;DHT22;3369;49.906;8.598;2023-03-01T00:15:40;-1.40;99.90
6666;DHT22;3369;49.906;8.598;2023-03-01T00:24:26;-1.40;99.90
6666;DHT22;3369;49.906;8.598;2023-03-01T00:27:02;-1.40;99.90
6666;DHT22;3369;49.906;8.598;2023-03-01T00:29:28;-1.50;99.90
6666;DHT22;3369;49.906;8.598;2023-03-01T00:31:54;-1.50;99.90
6666;DHT22;3369;49.906;8.598;2023-03-01T00:34:19;-1.50;99.90
6666;DHT22;3369;49.906;8.598;2023-03-01T00:36:45;-1.50;99.90
6666;DHT22;3369;49.906;8.598;2023-03-01T00:39:14;-1.60;99.90
6666;DHT22;3369;49.906;8.598;2023-03-01T00:41:40;-1.50;99.90
6666;DHT22;3369;49.906;8.598;2023-03-01T00:44:06;-1.50;99.90
6666;DHT22;3369;49.906;8.598;2023-03-01T00:46:34;-1.60;99.90
6666;DHT22;3369;49.906;8.598;2023-03-01T00:49:00;-1.60;99.90
6666;DHT22;3369;49.906;8.598;2023-03-01T00:55:08;-1.60;99.90
6666;DHT22;3369;49.906;8.598;2023-03-01T00:57:34;-1.60;99.90
6666;DHT22;3369;49.906;8.598;2023-03-01T01:00:00;-1.60;99.90
6666;DHT22;3369;49.906;8.598;2023-03-01T01:02:25;-1.50;99.90
6666;DHT22;3369;49.906;8.598;2023-03-01T01:04:54;-1.50;99.90
6666;DHT22;3369;49.906;8.598;2023-03-01T01:07:22;-1.50;99.90
6666;DHT22;3369;49.906;8.598;2023-03-01T01:29:22;-1.90;99.90
6666;DHT22;3369;49.906;8.598;2023-03-01T01:31:48;-2.00;99.90
6666;DHT22;3369;49.906;8.598;2023-03-01T01:34:17;-2.10;99.90
6666;DHT22;3369;49.906;8.598;2023-03-01T01:36:46;-2.20;99.90
6666;DHT22;3369;49.906;8.598;2023-03-01T01:39:12;-2.20;99.90
6666;DHT22;3369;49.906;8.598;2023-03-01T01:41:41;-2.20;99.90
6666;DHT22;3369;49.906;8.598;2023-03-01T01:44:17;-2.20;99.90
6666;DHT22;3369;49.906;8.598;2023-03-01T01:47:00;-2.20;99.90
6666;DHT22;3369;49.906;8.598;2023-03-01T01:52:07;-2.20;99.90
6666;DHT22;3369;49.906;8.598;2023-03-01T01:54:50;-2.20;99.90
6666;DHT22;3369;49.906;8.598;2023-03-01T01:57:22;-2.20;99.90
6666;DHT22;3369;49.906;8.598;2023-03-01T02:00:08;-2.20;99.90
6666;DHT22;3369;49.906;8.598;2023-03-01T02:02:34;-2.20;99.90
6666;DHT22;3369;49.906;8.598;2023-03-01T02:05:15;-2.20;99.90
6666;DHT22;3369;49.906;8.598;2023-03-01T02:10:29;-2.10;99.90
6666;DHT22;3369;49.906;8.598;2023-03-01T02:12:58;-2.10;99.90
6666;DHT22;3369;49.906;8.598;2023-03-01T02:15:31;-2.00;99.90
6666;DHT22;3369;49.906;8.598;2023-03-01T02:17:57;-2.10;99.90
6666;DHT22;3369;49.906;8.598;2023-03-01T02:23:49;-2.00;99.90
6666;DHT22;3369;49.906;8.598;2023-03-01T02:29:30;-1.90;99.90
6666;DHT22;3369;49.906;8.598;2023-03-01T02:31:58;-1.90;99.90
6666;DHT22;3369;49.906;8.598;2023-03-01T02:40:30;-1.80;99.90
6666;DHT22;3369;49.906;8.598;2023-03-01T02:43:04;-1.80;99.90
6666;DHT22;3369;49.906;8.598;2023-03-01T02:46:16;-1.80;99.90
6666;DHT22;3369;49.906;8.598;2023-03-01T02:48:56;-1.80;99.90
6666;DHT22;3369;49.906;8.598;2023-03-01T02:54:29;-1.80;99.90
6666;DHT22;3369;49.906;8.598;2023-03-01T02:56:58;-1.80;99.90
6666;DHT22;3369;49.906;8.598;2023-03-01T02:59:30;-1.80;99.90
6666;DHT22;3369;49.906;8.598;2023-03-01T03:01:56;-1.80;99.90
6666;DHT22;3369;49.906;8.598;2023-03-01T03:04:28;-1.80;99.90
6666;DHT22;3369;49.906;8.598;2023-03-01T03:07:03;-1.70;99.90
6666;DHT22;3369;49.906;8.598;2023-03-01T03:09:30;-1.70;99.90
6666;DHT22;3369;49.906;8.598;2023-03-01T03:11:59;-1.70;99.90
6666;DHT22;3369;49.906;8.598;2023-03-01T03:14:25;-1.70;99.90
6666;DHT22;3369;49.906;8.598;2023-03-01T03:17:07;-1.70;99.90
6666;DHT22;3369;49.906;8.598;2023-03-01T03:19:53;-1.70;99.90
6666;DHT22;3369;49.906;8.598;2023-03-01T03:22:19;-1.70;99.90
6666;DHT22;3369;49.906;8.598;2023-03-01T03:24:47;-1.70;99.90
6666;DHT22;3369;49.906;8.598;2023-03-01T03:27:13;-1.70;99.90
6666;DHT22;3369;49.906;8.598;2023-03-01T03:29:39;-1.70;99.90
6666;DHT22;3369;49.906;8.598;2023-03-01T03:32:05;-1.70;99.90
6666;DHT22;3369;49.906;8.598;2023-03-01T03:34:31;-1.70;99.90
6666;DHT22;3369;49.906;8.598;2023-03-01T03:36:57;-1.70;99.90
6666;DHT22;3369;49.906;8.598;2023-03-01T03:39:25;-1.70;99.90
6666;DHT22;3369;49.906;8.598;2023-03-01T03:41:53;-1.70;99.90
6666;DHT22;3369;49.906;8.598;2023-03-01T03:44:19;-1.70;99.90
6666;DHT22;3369;49.906;8.598;2023-03-01T03:46:45;-1.70;99.90
6666;DHT22;3369;49.906;8.598;2023-03-01T03:49:11;-1.60;99.90
6666;DHT22;3369;49.906;8.598;2023-03-01T03:51:39;-1.60;99.90
6666;DHT22;3369;49.906;8.598;2023-03-01T03:54:18;-1.60;99.90
6666;DHT22;3369;49.906;8.598;2023-03-01T03:56:47;-1.60;99.90
6666;DHT22;3369;49.906;8.598;2023-03-01T03:59:13;-1.60;99.90
6666;DHT22;3369;49.906;8.598;2023-03-01T04:01:42;-1.60;99.90
6666;DHT22;3369;49.906;8.598;2023-03-01T04:04:07;-1.50;99.90
6666;DHT22;3369;49.906;8.598;2023-03-01T04:06:33;-1.50;99.90
6666;DHT22;3369;49.906;8.598;2023-03-01T04:08:59;-1.50;99.90
6666;DHT22;3369;49.906;8.598;2023-03-01T04:11:27;-1.50;99.90
6666;DHT22;3369;49.906;8.598;2023-03-01T04:13:56;-1.50;99.90
6666;DHT22;3369;49.906;8.598;2023-03-01T04:16:22;-1.50;99.90
6666;DHT22;3369;49.906;8.598;2023-03-01T04:18:56;-1.50;99.90
6666;DHT22;3369;49.906;8.598;2023-03-01T04:24:55;-1.40;99.90
6666;DHT22;3369;49.906;8.598;2023-03-01T04:27:21;-1.40;99.90
6666;DHT22;3369;49.906;8.598;2023-03-01T04:29:50;-1.40;99.90
6666;DHT22;3369;49.906;8.598;2023-03-01T04:32:15;-1.40;99.90
6666;DHT22;3369;49.906;8.598;2023-03-01T04:34:44;-1.40;99.90
6666;DHT22;3369;49.906;8.598;2023-03-01T04:37:10;-1.40;99.90
6666;DHT22;3369;49.906;8.598;2023-03-01T04:39:36;-1.40;99.90
6666;DHT22;3369;49.906;8.598;2023-03-01T04:42:11;-1.40;99.90
6666;DHT22;3369;49.906;8.598;2023-03-01T04:44:37;-1.40;99.90
6666;DHT22;3369;49.906;8.598;2023-03-01T04:47:08;-1.40;99.90
6666;DHT22;3369;49.906;8.598;2023-03-01T04:49:36;-1.40;99.90
6666;DHT22;3369;49.906;8.598;2023-03-01T04:52:11;-1.40;99.90
6666;DHT22;3369;49.906;8.598;2023-03-01T04:54:37;-1.40;99.90
6666;DHT22;3369;49.906;8.598;2023-03-01T04:57:03;-1.40;99.90
6666;DHT22;3369;49.906;8.598;2023-03-01T04:59:29;-1.30;99.90
6666;DHT22;3369;49.906;8.598;2023-03-01T05:01:56;-1.40;99.90
6666;DHT22;3369;49.906;8.598;2023-03-01T05:04:31;-1.40;99.90
6666;DHT22;3369;49.906;8.598;2023-03-01T05:06:57;-1.40;99.90
6666;DHT22;3369;49.906;8.598;2023-03-01T05:09:24;-1.40;99.90
6666;DHT22;3369;49.906;8.598;2023-03-01T05:11:50;-1.40;99.90
6666;DHT22;3369;49.906;8.598;2023-03-01T05:14:17;-1.40;99.90
6666;DHT22;3369;49.906;8.598;2023-03-01T05:16:43;-1.40;99.90
6666;DHT22;3369;49.906;8.598;2023-03-01T05:19:12;-1.30;99.90
6666;DHT22;3369;49.906;8.598;2023-03-01T05:21:43;-1.30;99.90
6666;DHT22;3369;49.906;8.598;2023-03-01T05:24:34;-1.40;99.90
6666;DHT22;3369;49.906;8.598;2023-03-01T05:27:02;-1.40;99.90
6666;DHT22;3369;49.906;8.598;2023-03-01T05:29:36;-1.40;99.90
6666;DHT22;3369;49.906;8.598;2023-03-01T05:32:02;-1.30;99.90
6666;DHT22;3369;49.906;8.598;2023-03-01T05:34:30;-1.30;99.90
6666;DHT22;3369;49.906;8.598;2023-03-01T05:36:59;-1.30;99.90
6666;DHT22;3369;49.906;8.598;2023-03-01T05:39:27;-1.20;99.90
6666;DHT22;3369;49.906;8.598;2023-03-01T05:41:58;-1.20;99.90
6666;DHT22;3369;49.906;8.598;2023-03-01T05:44:24;-1.20;99.90
6666;DHT22;3369;49.906;8.598;2023-03-01T05:46:51;-1.20;99.90
6666;DHT22;3369;49.906;8.598;2023-03-01T05:49:21;-1.20;99.90
6666;DHT22;3369;49.906;8.598;2023-03-01T05:51:51;-1.20;99.90
6666;DHT22;3369;49.906;8.598;2023-03-01T05:54:18;-1.30;99.90
6666;DHT22;3369;49.906;8.598;2023-03-01T05:56:44;-1.30;99.90
6666;DHT22;3369;49.906;8.598;2023-03-01T05:59:10;-1.30;99.90
6666;DHT22;3369;49.906;8.598;2023-03-01T06:01:37;-1.30;99.90
6666;DHT22;3369;49.906;8.598;2023-03-01T06:04:04;-1.30;99.90
6666;DHT22;3369;49.906;8.598;2023-03-01T06:13:04;-1.40;99.90
6666;DHT22;3369;49.906;8.598;2023-03-01T06:15:30;-1.40;99.90
6666;DHT22;3369;49.906;8.598;2023-03-01T06:17:56;-1.40;99.90
6666;DHT22;3369;49.906;8.598;2023-03-01T06:20:27;-1.40;99.90
6666;DHT22;3369;49.906;8.598;2023-03-01T06:23:02;-1.30;99.90
6666;DHT22;3369;49.906;8.598;2023-03-01T06:25:28;-1.30;99.90
6666;DHT22;3369;49.906;8.598;2023-03-01T06:30:40;-1.30;99.90
6666;DHT22;3369;49.906;8.598;2023-03-01T06:33:06;-1.30;99.90
6666;DHT22;3369;49.906;8.598;2023-03-01T06:35:34;-1.20;99.90
6666;DHT22;3369;49.906;8.598;2023-03-01T06:38:04;-1.30;99.90
6666;DHT22;3369;49.906;8.598;2023-03-01T06:40:39;-1.20;99.90
6666;DHT22;3369;49.906;8.598;2023-03-01T06:43:04;-1.20;99.90
6666;DHT22;3369;49.906;8.598;2023-03-01T06:45:30;-1.20;99.90
6666;DHT22;3369;49.906;8.598;2023-03-01T06:48:06;-1.20;99.90
6666;DHT22;3369;49.906;8.598;2023-03-01T06:50:33;-1.10;99.90
6666;DHT22;3369;49.906;8.598;2023-03-01T07:12:48;-1.10;99.90
6666;DHT22;3369;49.906;8.598;2023-03-01T07:15:14;-1.10;99.90
6666;DHT22;3369;49.906;8.598;2023-03-01T07:17:40;-1.10;99.90
6666;DHT22;3369;49.906;8.598;2023-03-01T07:20:06;-1.10;99.90
6666;DHT22;3369;49.906;8.598;2023-03-01T07:22:32;-1.00;99.90
6666;DHT22;3369;49.906;8.598;2023-03-01T07:24:57;-1.00;99.90
6666;DHT22;3369;49.906;8.598;2023-03-01T07:27:23;-0.90;99.90
6666;DHT22;3369;49.906;8.598;2023-03-01T07:29:49;-0.80;99.90
6666;DHT22;3369;49.906;8.598;2023-03-01T07:32:14;-0.80;99.90
6666;DHT22;3369;49.906;8.598;2023-03-01T07:34:40;-0.70;99.90
6666;DHT22;3369;49.906;8.598;2023-03-01T07:37:06;-0.60;99.90
6666;DHT22;3369;49.906;8.598;2023-03-01T07:39:31;-0.50;99.90
6666;DHT22;3369;49.906;8.598;2023-03-01T07:41:57;-0.50;99.90
6666;DHT22;3369;49.906;8.598;2023-03-01T07:44:23;-0.40;99.90
6666;DHT22;3369;49.906;8.598;2023-03-01T07:46:48;-0.40;99.90
6666;DHT22;3369;49.906;8.598;2023-03-01T07:49:14;-0.30;99.90
6666;DHT22;3369;49.906;8.598;2023-03-01T07:51:40;-0.20;99.90
6666;DHT22;3369;49.906;8.598;2023-03-01T07:54:05;-0.10;99.90
6666;DHT22;3369;49.906;8.598;2023-03-01T07:56:31;0.00;99.90
6666;DHT22;3369;49.906;8.598;2023-03-01T07:58:59;0.10;99.90
6666;DHT22;3369;49.906;8.598;2023-03-01T08:01:25;0.20;99.90
6666;DHT22;3369;49.906;8.598;2023-03-01T08:03:51;0.30;99.90
6666;DHT22;3369;49.906;8.598;2023-03-01T08:06:17;0.40;99.90
6666;DHT22;3369;49.906;8.598;2023-03-01T08:08:43;0.60;99.90
6666;DHT22;3369;49.906;8.598;2023-03-01T08:11:11;0.70;99.90
6666;DHT22;3369;49.906;8.598;2023-03-01T08:13:37;0.80;99.90
6666;DHT22;3369;49.906;8.598;2023-03-01T08:16:05;0.90;99.90
6666;DHT22;3369;49.906;8.598;2023-03-01T08:18:32;1.00;99.90
6666;DHT22;3369;49.906;8.598;2023-03-01T08:21:06;1.10;99.90
6666;DHT22;3369;49.906;8.598;2023-03-01T08:23:32;1.20;99.90
6666;DHT22;3369;49.906;8.598;2023-03-01T08:26:12;1.20;99.90
6666;DHT22;3369;49.906;8.598;2023-03-01T08:28:39;1.30;99.90
6666;DHT22;3369;49.906;8.598;2023-03-01T08:33:40;1.50;99.90
6666;DHT22;3369;49.906;8.598;2023-03-01T08:36:06;1.60;99.40
6666;DHT22;3369;49.906;8.598;2023-03-01T08:38:34;1.70;99.30
6666;DHT22;3369;49.906;8.598;2023-03-01T08:41:03;1.90;99.30
6666;DHT22;3369;49.906;8.598;2023-03-01T08:43:29;2.00;99.20
6666;DHT22;3369;49.906;8.598;2023-03-01T08:45:54;2.20;99.20
6666;DHT22;3369;49.906;8.598;2023-03-01T08:48:22;2.30;99.10
6666;DHT22;3369;49.906;8.598;2023-03-01T08:50:48;2.50;99.00
6666;DHT22;3369;49.906;8.598;2023-03-01T08:53:14;2.60;98.10
6666;DHT22;3369;49.906;8.598;2023-03-01T08:55:39;2.70;98.00
6666;DHT22;3369;49.906;8.598;2023-03-01T08:58:05;2.90;97.70
6666;DHT22;3369;49.906;8.598;2023-03-01T09:00:31;2.90;97.10
6666;DHT22;3369;49.906;8.598;2023-03-01T09:03:00;3.00;97.10
6666;DHT22;3369;49.906;8.598;2023-03-01T09:05:26;3.00;97.10
6666;DHT22;3369;49.906;8.598;2023-03-01T09:07:51;3.10;96.90
6666;DHT22;3369;49.906;8.598;2023-03-01T09:10:17;3.10;97.00
6666;DHT22;3369;49.906;8.598;2023-03-01T09:12:43;3.20;96.30
6666;DHT22;3369;49.906;8.598;2023-03-01T09:15:10;3.20;96.40
6666;DHT22;3369;49.906;8.598;2023-03-01T09:17:35;3.30;96.80
6666;DHT22;3369;49.906;8.598;2023-03-01T09:20:01;3.30;96.10
6666;DHT22;3369;49.906;8.598;2023-03-01T09:22:27;3.40;96.10
6666;DHT22;3369;49.906;8.598;2023-03-01T09:24:52;3.50;95.70
6666;DHT22;3369;49.906;8.598;2023-03-01T09:27:18;3.50;95.20
6666;DHT22;3369;49.906;8.598;2023-03-01T09:29:45;3.50;95.30
6666;DHT22;3369;49.906;8.598;2023-03-01T09:32:13;3.60;95.40
6666;DHT22;3369;49.906;8.598;2023-03-01T09:34:39;3.60;95.20
6666;DHT22;3369;49.906;8.598;2023-03-01T09:37:23;3.70;95.00
6666;DHT22;3369;49.906;8.598;2023-03-01T09:39:49;3.70;95.10
6666;DHT22;3369;49.906;8.598;2023-03-01T09:48:12;4.00;94.70
6666;DHT22;3369;49.906;8.598;2023-03-01T09:50:41;4.10;94.20
6666;DHT22;3369;49.906;8.598;2023-03-01T09:53:18;4.10;94.10
6666;DHT22;3369;49.906;8.598;2023-03-01T09:56:29;4.20;94.20
6666;DHT22;3369;49.906;8.598;2023-03-01T10:09:55;4.60;93.60
6666;DHT22;3369;49.906;8.598;2023-03-01T10:12:24;4.70;93.30
6666;DHT22;3369;49.906;8.598;2023-03-01T10:15:09;4.80;93.60
6666;DHT22;3369;49.906;8.598;2023-03-01T10:17:55;4.90;93.40
6666;DHT22;3369;49.906;8.598;2023-03-01T10:20:28;5.00;93.30
6666;DHT22;3369;49.906;8.598;2023-03-01T10:22:55;5.20;93.00
6666;DHT22;3369;49.906;8.598;2023-03-01T10:25:56;5.30;93.10
6666;DHT22;3369;49.906;8.598;2023-03-01T10:31:18;5.50;92.70
6666;DHT22;3369;49.906;8.598;2023-03-01T10:33:46;5.60;92.60
6666;DHT22;3369;49.906;8.598;2023-03-01T10:36:13;5.80;92.70
6666;DHT22;3369;49.906;8.598;2023-03-01T10:38:55;5.90;92.70
6666;DHT22;3369;49.906;8.598;2023-03-01T10:41:24;6.10;92.10
6666;DHT22;3369;49.906;8.598;2023-03-01T10:43:56;6.10;91.70
6666;DHT22;3369;49.906;8.598;2023-03-01T10:46:32;6.20;92.00
6666;DHT22;3369;49.906;8.598;2023-03-01T10:49:24;6.40;92.10
6666;DHT22;3369;49.906;8.598;2023-03-01T10:51:53;6.60;91.70
6666;DHT22;3369;49.906;8.598;2023-03-01T10:56:53;6.80;90.90
6666;DHT22;3369;49.906;8.598;2023-03-01T10:59:38;6.90;91.10
6666;DHT22;3369;49.906;8.598;2023-03-01T11:02:17;6.90;90.80
6666;DHT22;3369;49.906;8.598;2023-03-01T11:07:49;7.10;90.40
6666;DHT22;3369;49.906;8.598;2023-03-01T11:10:30;7.10;90.10
6666;DHT22;3369;49.906;8.598;2023-03-01T11:15:40;7.00;88.70
6666;DHT22;3369;49.906;8.598;2023-03-01T11:18:19;7.00;89.40
6666;DHT22;3369;49.906;8.598;2023-03-01T11:20:46;7.00;87.90
6666;DHT22;3369;49.906;8.598;2023-03-01T11:23:15;7.10;87.10
6666;DHT22;3369;49.906;8.598;2023-03-01T11:25:50;7.10;88.30
6666;DHT22;3369;49.906;8.598;2023-03-01T11:28:20;7.30;87.90
6666;DHT22;3369;49.906;8.598;2023-03-01T11:30:49;7.30;87.30
6666;DHT22;3369;49.906;8.598;2023-03-01T11:38:40;7.60;85.50
6666;DHT22;3369;49.906;8.598;2023-03-01T11:41:21;7.60;85.40
6666;DHT22;3369;49.906;8.598;2023-03-01T11:44:04;7.60;86.10
6666;DHT22;3369;49.906;8.598;2023-03-01T11:52:56;7.80;85.40
6666;DHT22;3369;49.906;8.598;2023-03-01T12:17:35;8.10;78.60
6666;DHT22;3369;49.906;8.598;2023-03-01T12:29:18;8.30;76.60
6666;DHT22;3369;49.906;8.598;2023-03-01T12:32:15;8.20;76.30
6666;DHT22;3369;49.906;8.598;2023-03-01T12:35:04;8.30;76.40
6666;DHT22;3369;49.906;8.598;2023-03-01T12:51:34;8.70;74.80
6666;DHT22;3369;49.906;8.598;2023-03-01T12:54:07;8.80;73.40
6666;DHT22;3369;49.906;8.598;2023-03-01T12:56:41;8.80;72.40
6666;DHT22;3369;49.906;8.598;2023-03-01T12:59:42;8.80;71.80
6666;DHT22;3369;49.906;8.598;2023-03-01T13:02:30;8.70;71.70
6666;DHT22;3369;49.906;8.598;2023-03-01T13:29:56;8.40;70.70
6666;DHT22;3369;49.906;8.598;2023-03-01T13:32:40;8.40;71.40
6666;DHT22;3369;49.906;8.598;2023-03-01T13:37:45;8.40;72.70
6666;DHT22;3369;49.906;8.598;2023-03-01T13:42:53;8.70;71.90
6666;DHT22;3369;49.906;8.598;2023-03-01T13:45:36;8.80;70.80
6666;DHT22;3369;49.906;8.598;2023-03-01T13:48:11;8.80;70.60
6666;DHT22;3369;49.906;8.598;2023-03-01T13:50:49;8.80;70.10
6666;DHT22;3369;49.906;8.598;2023-03-01T13:53:22;8.80;70.70
6666;DHT22;3369;49.906;8.598;2023-03-01T13:56:07;8.90;70.60
6666;DHT22;3369;49.906;8.598;2023-03-01T13:58:53;8.90;70.60
6666;DHT22;3369;49.906;8.598;2023-03-01T14:03:50;8.90;70.20
6666;DHT22;3369;49.906;8.598;2023-03-01T14:06:21;8.90;70.20
6666;DHT22;3369;49.906;8.598;2023-03-01T14:08:49;8.90;70.10
6666;DHT22;3369;49.906;8.598;2023-03-01T14:14:02;8.80;69.70
6666;DHT22;3369;49.906;8.598;2023-03-01T14:19:15;8.80;68.60
6666;DHT22;3369;49.906;8.598;2023-03-01T14:21:46;8.70;68.40
6666;DHT22;3369;49.906;8.598;2023-03-01T14:24:22;8.70;69.30
6666;DHT22;3369;49.906;8.598;2023-03-01T14:26:50;8.70;69.80
6666;DHT22;3369;49.906;8.598;2023-03-01T14:32:56;8.60;69.80
6666;DHT22;3369;49.906;8.598;2023-03-01T14:35:30;8.60;69.80
6666;DHT22;3369;49.906;8.598;2023-03-01T14:37:59;8.60;70.10
6666;DHT22;3369;49.906;8.598;2023-03-01T14:40:32;8.60;69.70
6666;DHT22;3369;49.906;8.598;2023-03-01T14:43:30;8.60;69.60
6666;DHT22;3369;49.906;8.598;2023-03-01T14:45:57;8.60;68.90
6666;DHT22;3369;49.906;8.598;2023-03-01T14:48:23;8.60;69.70
6666;DHT22;3369;49.906;8.598;2023-03-01T14:50:50;8.50;69.90
6666;DHT22;3369;49.906;8.598;2023-03-01T14:53:27;8.50;69.80
6666;DHT22;3369;49.906;8.598;2023-03-01T14:55:56;8.50;70.40
6666;DHT22;3369;49.906;8.598;2023-03-01T14:58:25;8.50;70.20
6666;DHT22;3369;49.906;8.598;2023-03-01T15:01:00;8.50;70.00
6666;DHT22;3369;49.906;8.598;2023-03-01T15:03:44;8.40;69.60
6666;DHT22;3369;49.906;8.598;2023-03-01T15:06:15;8.40;70.10
6666;DHT22;3369;49.906;8.598;2023-03-01T15:08:44;8.40;70.10
6666;DHT22;3369;49.906;8.598;2023-03-01T15:11:24;8.40;69.90
6666;DHT22;3369;49.906;8.598;2023-03-01T15:13:53;8.30;70.30
6666;DHT22;3369;49.906;8.598;2023-03-01T15:19:53;8.40;69.80
6666;DHT22;3369;49.906;8.598;2023-03-01T15:25:59;8.30;70.40
6666;DHT22;3369;49.906;8.598;2023-03-01T16:02:50;7.90;71.80
6666;DHT22;3369;49.906;8.598;2023-03-01T16:11:53;7.70;72.50
6666;DHT22;3369;49.906;8.598;2023-03-01T16:14:23;7.60;72.50
6666;DHT22;3369;49.906;8.598;2023-03-01T16:16:52;7.60;73.00
6666;DHT22;3369;49.906;8.598;2023-03-01T16:19:18;7.60;73.00
6666;DHT22;3369;49.906;8.598;2023-03-01T16:21:43;7.50;72.70
6666;DHT22;3369;49.906;8.598;2023-03-01T16:24:14;7.50;73.20
6666;DHT22;3369;49.906;8.598;2023-03-01T16:26:40;7.50;72.90
6666;DHT22;3369;49.906;8.598;2023-03-01T16:29:05;7.40;72.90
6666;DHT22;3369;49.906;8.598;2023-03-01T16:31:31;7.30;73.60
6666;DHT22;3369;49.906;8.598;2023-03-01T16:33:58;7.30;74.10
6666;DHT22;3369;49.906;8.598;2023-03-01T16:36:26;7.20;74.00
6666;DHT22;3369;49.906;8.598;2023-03-01T16:38:54;7.10;74.00
6666;DHT22;3369;49.906;8.598;2023-03-01T16:41:22;7.10;74.40
6666;DHT22;3369;49.906;8.598;2023-03-01T16:43:49;7.00;74.90
6666;DHT22;3369;49.906;8.598;2023-03-01T16:46:21;6.90;75.50
6666;DHT22;3369;49.906;8.598;2023-03-01T16:48:47;6.80;75.40
6666;DHT22;3369;49.906;8.598;2023-03-01T16:51:13;6.70;75.80
6666;DHT22;3369;49.906;8.598;2023-03-01T16:53:39;6.60;76.30
6666;DHT22;3369;49.906;8.598;2023-03-01T16:56:07;6.50;76.60
6666;DHT22;3369;49.906;8.598;2023-03-01T16:58:52;6.40;77.00
6666;DHT22;3369;49.906;8.598;2023-03-01T17:01:20;6.30;77.10
6666;DHT22;3369;49.906;8.598;2023-03-01T17:03:49;6.30;77.40
6666;DHT22;3369;49.906;8.598;2023-03-01T17:06:21;6.20;77.30
6666;DHT22;3369;49.906;8.598;2023-03-01T17:08:50;6.20;77.10
6666;DHT22;3369;49.906;8.598;2023-03-01T17:11:19;6.20;77.30
6666;DHT22;3369;49.906;8.598;2023-03-01T17:13:45;6.10;77.90
6666;DHT22;3369;49.906;8.598;2023-03-01T17:16:16;6.00;77.90
6666;DHT22;3369;49.906;8.598;2023-03-01T17:18:52;6.00;78.10
6666;DHT22;3369;49.906;8.598;2023-03-01T17:21:18;5.90;78.60
6666;DHT22;3369;49.906;8.598;2023-03-01T17:23:45;5.80;79.60
6666;DHT22;3369;49.906;8.598;2023-03-01T17:26:15;5.80;78.80
6666;DHT22;3369;49.906;8.598;2023-03-01T17:28:43;5.70;79.10
6666;DHT22;3369;49.906;8.598;2023-03-01T17:31:10;5.70;79.30
6666;DHT22;3369;49.906;8.598;2023-03-01T17:33:36;5.60;79.60
6666;DHT22;3369;49.906;8.598;2023-03-01T17:36:02;5.50;79.80
6666;DHT22;3369;49.906;8.598;2023-03-01T17:38:28;5.40;80.10
6666;DHT22;3369;49.906;8.598;2023-03-01T17:40:54;5.40;81.00
6666;DHT22;3369;49.906;8.598;2023-03-01T17:43:20;5.30;80.50
6666;DHT22;3369;49.906;8.598;2023-03-01T17:45:46;5.20;80.80
6666;DHT22;3369;49.906;8.598;2023-03-01T17:48:16;5.20;81.00
6666;DHT22;3369;49.906;8.598;2023-03-01T17:50:43;5.10;81.20
6666;DHT22;3369;49.906;8.598;2023-03-01T17:53:09;5.00;81.40
6666;DHT22;3369;49.906;8.598;2023-03-01T17:55:38;5.00;81.70
6666;DHT22;3369;49.906;8.598;2023-03-01T17:58:08;4.90;82.00
6666;DHT22;3369;49.906;8.598;2023-03-01T18:00:35;4.80;82.90
6666;DHT22;3369;49.906;8.598;2023-03-01T18:03:01;4.80;82.40
6666;DHT22;3369;49.906;8.598;2023-03-01T18:05:33;4.70;82.70
6666;DHT22;3369;49.906;8.598;2023-03-01T18:08:21;4.60;82.90
6666;DHT22;3369;49.906;8.598;2023-03-01T18:10:47;4.50;83.30
6666;DHT22;3369;49.906;8.598;2023-03-01T18:13:16;4.40;83.40
6666;DHT22;3369;49.906;8.598;2023-03-01T18:15:42;4.40;83.80
6666;DHT22;3369;49.906;8.598;2023-03-01T18:18:08;4.30;84.00
6666;DHT22;3369;49.906;8.598;2023-03-01T18:20:34;4.30;84.30
6666;DHT22;3369;49.906;8.598;2023-03-01T18:23:00;4.20;84.60
6666;DHT22;3369;49.906;8.598;2023-03-01T18:25:26;4.10;84.80
6666;DHT22;3369;49.906;8.598;2023-03-01T18:27:52;4.10;85.20
6666;DHT22;3369;49.906;8.598;2023-03-01T18:30:20;4.00;85.40
6666;DHT22;3369;49.906;8.598;2023-03-01T18:32:47;4.00;85.60
6666;DHT22;3369;49.906;8.598;2023-03-01T18:35:13;3.90;85.60
6666;DHT22;3369;49.906;8.598;2023-03-01T18:37:39;3.90;85.60
6666;DHT22;3369;49.906;8.598;2023-03-01T18:40:06;3.90;85.70
6666;DHT22;3369;49.906;8.598;2023-03-01T18:42:32;3.90;85.60
6666;DHT22;3369;49.906;8.598;2023-03-01T18:44:58;3.90;85.60
6666;DHT22;3369;49.906;8.598;2023-03-01T18:47:36;3.90;85.60
6666;DHT22;3369;49.906;8.598;2023-03-01T18:50:02;3.90;85.80
6666;DHT22;3369;49.906;8.598;2023-03-01T18:52:30;3.80;85.90
6666;DHT22;3369;49.906;8.598;2023-03-01T18:54:56;3.80;86.00
6666;DHT22;3369;49.906;8.598;2023-03-01T18:57:22;3.80;86.00
6666;DHT22;3369;49.906;8.598;2023-03-01T18:59:48;3.70;86.70
6666;DHT22;3369;49.906;8.598;2023-03-01T19:02:14;3.60;86.10
6666;DHT22;3369;49.906;8.598;2023-03-01T19:04:41;3.60;86.30
6666;DHT22;3369;49.906;8.598;2023-03-01T19:29:02;3.10;85.60
6666;DHT22;3369;49.906;8.598;2023-03-01T19:31:29;3.10;86.60
6666;DHT22;3369;49.906;8.598;2023-03-01T19:37:13;3.00;87.00
6666;DHT22;3369;49.906;8.598;2023-03-01T19:39:42;3.00;86.90
6666;DHT22;3369;49.906;8.598;2023-03-01T19:42:09;3.00;87.10
6666;DHT22;3369;49.906;8.598;2023-03-01T19:44:38;3.00;87.00
6666;DHT22;3369;49.906;8.598;2023-03-01T19:47:10;3.00;86.90
6666;DHT22;3369;49.906;8.598;2023-03-01T19:49:37;3.00;87.00
6666;DHT22;3369;49.906;8.598;2023-03-01T19:52:03;3.10;86.90
6666;DHT22;3369;49.906;8.598;2023-03-01T19:54:29;3.10;87.00
6666;DHT22;3369;49.906;8.598;2023-03-01T19:57:01;3.10;87.00
6666;DHT22;3369;49.906;8.598;2023-03-01T19:59:29;3.10;87.00
6666;DHT22;3369;49.906;8.598;2023-03-01T20:01:55;3.10;87.00
6666;DHT22;3369;49.906;8.598;2023-03-01T20:04:21;3.00;87.00
6666;DHT22;3369;49.906;8.598;2023-03-01T20:06:50;3.00;87.20
6666;DHT22;3369;49.906;8.598;2023-03-01T20:09:18;3.00;87.30
6666;DHT22;3369;49.906;8.598;2023-03-01T20:11:44;3.00;87.40
6666;DHT22;3369;49.906;8.598;2023-03-01T20:14:10;2.90;87.40
6666;DHT22;3369;49.906;8.598;2023-03-01T20:16:40;2.90;87.60
6666;DHT22;3369;49.906;8.598;2023-03-01T20:19:06;2.90;87.80
6666;DHT22;3369;49.906;8.598;2023-03-01T20:21:32;2.80;87.90
6666;DHT22;3369;49.906;8.598;2023-03-01T20:23:59;2.80;88.10
6666;DHT22;3369;49.906;8.598;2023-03-01T20:26:36;2.80;88.30
6666;DHT22;3369;49.906;8.598;2023-03-01T20:29:08;2.80;88.40
6666;DHT22;3369;49.906;8.598;2023-03-01T20:31:37;2.70;88.60
6666;DHT22;3369;49.906;8.598;2023-03-01T20:34:04;2.60;88.70
6666;DHT22;3369;49.906;8.598;2023-03-01T20:36:30;2.60;89.00
6666;DHT22;3369;49.906;8.598;2023-03-01T20:38:56;2.60;89.20
6666;DHT22;3369;49.906;8.598;2023-03-01T20:41:23;2.50;89.40
6666;DHT22;3369;49.906;8.598;2023-03-01T20:43:53;2.50;89.70
6666;DHT22;3369;49.906;8.598;2023-03-01T20:46:22;2.40;89.80
6666;DHT22;3369;49.906;8.598;2023-03-01T20:48:50;2.40;90.00
6666;DHT22;3369;49.906;8.598;2023-03-01T20:51:17;2.30;90.10
6666;DHT22;3369;49.906;8.598;2023-03-01T20:54:04;2.30;90.20
6666;DHT22;3369;49.906;8.598;2023-03-01T20:56:30;2.30;90.40
6666;DHT22;3369;49.906;8.598;2023-03-01T20:58:56;2.20;90.50
6666;DHT22;3369;49.906;8.598;2023-03-01T21:01:23;2.20;90.60
6666;DHT22;3369;49.906;8.598;2023-03-01T21:03:58;2.20;90.70
6666;DHT22;3369;49.906;8.598;2023-03-01T21:06:28;2.20;90.80
6666;DHT22;3369;49.906;8.598;2023-03-01T21:08:57;2.10;90.90
6666;DHT22;3369;49.906;8.598;2023-03-01T21:11:23;2.10;91.00
6666;DHT22;3369;49.906;8.598;2023-03-01T21:13:53;2.10;91.10